Time;durP1;ratioP1;P1;durP2;ratioP2;P2;SDS_P1;SDS_P2;PMS_P1;PMS_P2;Temp;Humidity;BMP_temperature;BMP_pressure;BME280_temperature;BME280_humidity;BME280_pressure;Samples;Min_cycle;Max_cycle;Signal;HPM_P1;HPM_P2
2023/04/12 00:04:21;;;;;;;2.90;2.10;;;22.20;57.80;;;;;;222324;1256;22516;-46
2023/04/12 00:09:29;;;;;;;4.30;2.30;;;22.20;57.90;;;;;;222308;1262;24242;-48
2023/04/12 00:14:33;;;;;;;3.70;2.30;;;22.10;57.70;;;;;;222324;1246;25509;-43
2023/04/12 00:19:40;;;;;;;2.40;2.20;;;22.10;57.80;;;;;;222307;1259;22525;-45
2023/04/12 00:24:46;;;;;;;2.80;2.30;;;22.00;57.90;;;;;;222363;1263;22602;-48
2023/04/12 00:29:50;;;;;;;3.50;2.40;;;22.00;58.20;;;;;;222119;1254;22529;-50
2023/04/12 00:34:54;;;;;;;3.60;2.70;;;21.90;58.30;;;;;;221986;1258;22513;-46
2023/04/12 00:39:58;;;;;;;4.50;2.60;;;21.90;58.00;;;;;;222335;1262;25539;-48
2023/04/12 00:45:03;;;;;;;3.20;2.30;;;21.90;58.10;;;;;;222305;1253;22776;-50
2023/04/12 00:50:09;;;;;;;2.50;2.10;;;21.80;58.10;;;;;;222215;1263;22504;-46
2023/04/12 00:55:14;;;;;;;3.60;2.50;;;21.80;58.10;;;;;;222252;1254;22623;-48
2023/04/12 01:00:19;;;;;;;2.80;2.30;;;21.80;58.10;;;;;;222177;1262;22516;-49
2023/04/12 01:05:24;;;;;;;2.40;2.10;;;21.70;58.10;;;;;;222160;1257;24439;-48
2023/04/12 01:10:39;;;;;;;2.40;2.20;;;21.80;58.20;;;;;;222381;1253;22511;-49
2023/04/12 01:16:15;;;;;;;3.50;2.30;;;22.20;57.60;;;;;;222344;1259;22530;-46
2023/04/12 01:21:34;;;;;;;4.70;2.30;;;22.40;57.00;;;;;;222430;1262;24449;-48
2023/04/12 01:26:44;;;;;;;4.10;2.50;;;22.70;56.80;;;;;;222275;1263;24185;-47
2023/04/12 01:31:53;;;;;;;2.90;2.40;;;22.90;55.80;;;;;;222338;1254;22531;-49
2023/04/12 01:37:02;;;;;;;2.80;2.30;;;23.00;55.60;;;;;;222341;1255;22527;-50
2023/04/12 01:42:06;;;;;;;2.40;2.20;;;23.00;55.40;;;;;;222309;1254;22666;-48
2023/04/12 01:47:10;;;;;;;1.80;1.60;;;23.10;55.20;;;;;;222189;1247;22504;-48
2023/04/12 01:52:20;;;;;;;2.70;2.10;;;23.10;55.30;;;;;;222083;1265;22641;-48
2023/04/12 01:57:25;;;;;;;3.10;2.30;;;23.10;55.30;;;;;;222086;1262;22639;-47
2023/04/12 02:02:29;;;;;;;5.30;2.40;;;23.10;55.20;;;;;;222313;1249;26582;-49
2023/04/12 02:07:34;;;;;;;3.00;2.10;;;23.20;55.20;;;;;;222177;1255;22514;-45
2023/04/12 02:12:39;;;;;;;3.30;2.10;;;23.20;55.40;;;;;;222329;1256;25318;-50
2023/04/12 02:17:45;;;;;;;3.60;2.00;;;23.30;55.20;;;;;;222188;1251;22518;-46
2023/04/12 02:22:49;;;;;;;3.20;2.10;;;23.30;54.80;;;;;;222305;1263;22530;-46
2023/04/12 02:27:56;;;;;;;2.30;2.10;;;23.30;54.30;;;;;;222169;1247;22508;-48
2023/04/12 02:33:01;;;;;;;3.60;2.10;;;23.30;55.50;;;;;;222382;1260;22551;-47
2023/04/12 02:38:08;;;;;;;2.30;2.10;;;23.40;54.70;;;;;;222252;1265;24202;-47
2023/04/12 02:43:14;;;;;;;2.50;1.80;;;23.40;54.60;;;;;;222295;1253;22708;-47
2023/04/12 02:48:20;;;;;;;2.30;1.90;;;23.40;54.60;;;;;;222196;1261;22709;-47
2023/04/12 02:53:25;;;;;;;2.30;2.10;;;23.50;54.60;;;;;;222350;1262;22534;-50
2023/04/12 02:58:42;;;;;;;2.70;2.30;;;23.50;54.50;;;;;;222024;1263;24437;-48
2023/04/12 03:03:48;;;;;;;2.80;1.90;;;23.60;54.40;;;;;;222275;1262;22643;-51
2023/04/12 03:09:07;;;;;;;2.20;1.80;;;23.40;55.20;;;;;;222341;1259;22664;-47
2023/04/12 03:14:11;;;;;;;2.30;2.10;;;23.30;54.90;;;;;;222329;1262;22626;-47
2023/04/12 03:19:17;;;;;;;5.30;2.20;;;23.00;55.70;;;;;;222372;1263;24309;-49
2023/04/12 03:24:27;;;;;;;2.30;2.10;;;23.00;55.60;;;;;;222249;1266;22606;-45
2023/04/12 03:29:31;;;;;;;2.50;1.90;;;22.90;56.00;;;;;;222299;1254;22666;-49
2023/04/12 03:34:36;;;;;;;2.80;1.80;;;22.80;56.10;;;;;;222216;1262;22576;-47
2023/04/12 03:39:46;;;;;;;2.70;2.30;;;22.80;56.50;;;;;;222246;1266;22643;-46
2023/04/12 03:44:56;;;;;;;2.30;2.10;;;22.70;56.00;;;;;;222419;1261;25320;-48
2023/04/12 03:50:05;;;;;;;4.10;1.90;;;22.60;56.40;;;;;;222070;1263;22516;-52
2023/04/12 03:55:17;;;;;;;2.10;1.80;;;22.50;56.30;;;;;;222070;1254;22523;-47
2023/04/12 04:00:23;;;;;;;2.20;2.00;;;22.50;56.60;;;;;;222394;1262;25416;-48
2023/04/12 04:05:35;;;;;;;2.60;2.00;;;22.40;56.50;;;;;;222291;1262;22509;-46
2023/04/12 04:10:40;;;;;;;2.00;1.70;;;22.40;56.50;;;;;;222234;1265;25215;-47
2023/04/12 04:15:45;;;;;;;2.30;1.60;;;22.30;56.80;;;;;;222151;1255;24190;-49
2023/04/12 04:20:49;;;;;;;1.90;1.60;;;22.20;56.60;;;;;;222317;1263;24055;-48
2023/04/12 04:25:54;;;;;;;2.00;1.70;;;22.10;56.90;;;;;;222231;1255;22514;-46
2023/04/12 04:31:04;;;;;;;2.20;2.00;;;22.10;56.70;;;;;;222290;1269;24365;-48
2023/04/12 04:36:11;;;;;;;2.20;2.00;;;22.00;56.80;;;;;;222111;1262;22620;-46
2023/04/12 04:41:21;;;;;;;3.10;1.70;;;22.00;57.20;;;;;;222211;1262;22538;-50
2023/04/12 04:46:33;;;;;;;1.60;1.50;;;21.90;56.90;;;;;;222310;1269;22512;-46
2023/04/12 04:51:37;;;;;;;2.50;1.80;;;21.90;57.00;;;;;;222234;1259;22507;-46
2023/04/12 04:56:41;;;;;;;2.30;2.10;;;21.90;57.00;;;;;;222292;1266;22666;-48
2023/04/12 05:01:47;;;;;;;2.20;2.00;;;21.80;57.30;;;;;;222418;1267;25459;-48
2023/04/12 05:06:52;;;;;;;1.60;1.50;;;21.90;56.90;;;;;;222433;1259;22558;-48
2023/04/12 05:11:59;;;;;;;1.50;1.40;;;22.20;56.80;;;;;;222275;1261;22518;-48
2023/04/12 05:17:03;;;;;;;3.00;2.10;;;22.50;56.50;;;;;;222056;1269;22529;-50
2023/04/12 05:22:07;;;;;;;2.30;1.90;;;22.50;55.90;;;;;;222418;1262;22512;-51
2023/04/12 05:27:11;;;;;;;2.50;1.80;;;22.60;55.70;;;;;;222243;1253;22514;-47
2023/04/12 05:32:15;;;;;;;2.90;1.40;;;22.80;55.50;;;;;;222176;1251;22523;-50
2023/04/12 05:37:20;;;;;;;1.50;1.40;;;22.90;55.40;;;;;;222088;1255;22612;-50
2023/04/12 05:42:24;;;;;;;3.80;1.70;;;23.00;55.00;;;;;;222046;1264;24043;-49
2023/04/12 05:47:28;;;;;;;2.10;1.80;;;23.00;54.80;;;;;;222337;1260;24275;-46
2023/04/12 05:52:32;;;;;;;2.20;1.70;;;23.10;54.70;;;;;;222313;1265;22511;-51
2023/04/12 05:57:37;;;;;;;4.30;1.70;;;23.20;54.80;;;;;;222293;1264;23134;-50
2023/04/12 06:02:43;;;;;;;5.40;1.90;;;23.20;55.40;;;;;;222161;1262;22686;-51
2023/04/12 06:07:47;;;;;;;8.30;2.20;;;23.20;56.20;;;;;;222328;1257;24190;-53
2023/04/12 06:12:52;;;;;;;4.50;2.30;;;23.20;56.20;;;;;;222098;1265;22561;-56
2023/04/12 06:17:58;;;;;;;3.00;2.10;;;23.30;56.30;;;;;;222104;1261;22675;-54
2023/04/12 06:23:02;;;;;;;3.30;1.90;;;23.30;55.90;;;;;;222196;1264;22518;-53
2023/04/12 06:28:06;;;;;;;7.70;2.10;;;23.20;56.10;;;;;;221850;1267;227110;-51
2023/04/12 06:33:21;;;;;;;4.10;1.80;;;23.30;56.70;;;;;;222281;1254;22554;-54
2023/04/12 06:38:26;;;;;;;3.20;1.70;;;23.30;56.50;;;;;;222115;1257;22820;-55
2023/04/12 06:43:30;;;;;;;12.30;2.00;;;23.20;56.50;;;;;;222205;1264;22604;-58
2023/04/12 06:48:34;;;;;;;5.40;1.80;;;23.10;56.40;;;;;;222342;1254;24185;-54
2023/04/12 06:53:38;;;;;;;5.50;1.90;;;22.90;56.70;;;;;;222177;1254;22641;-53
2023/04/12 06:58:42;;;;;;;10.70;2.20;;;22.80;57.20;;;;;;222264;1264;25231;-54
2023/04/12 07:03:46;;;;;;;6.40;2.20;;;22.80;57.10;;;;;;222254;1261;22510;-52
2023/04/12 07:08:51;;;;;;;5.90;2.10;;;22.80;57.20;;;;;;222268;1254;22564;-51
2023/04/12 07:13:57;;;;;;;11.00;2.20;;;22.90;56.40;;;;;;222129;1255;22526;-52
2023/04/12 07:19:02;;;;;;;6.60;2.00;;;22.90;57.20;;;;;;222271;1261;22639;-53
2023/04/12 07:24:07;;;;;;;6.80;1.90;;;22.80;56.00;;;;;;221836;1264;24219;-52
2023/04/12 07:29:12;;;;;;;6.00;2.60;;;22.70;55.80;;;;;;222788;1254;22762;-53
2023/04/12 07:34:16;;;;;;;8.90;2.50;;;22.70;55.00;;;;;;222319;1254;25606;-53
2023/04/12 07:39:20;;;;;;;7.20;2.30;;;22.70;55.60;;;;;;222422;1267;24185;-52
2023/04/12 07:44:24;;;;;;;2.90;2.40;;;22.60;55.90;;;;;;222431;1251;22808;-51
2023/04/12 07:49:28;;;;;;;3.70;2.30;;;22.60;55.70;;;;;;222562;1254;24361;-56
2023/04/12 07:54:33;;;;;;;4.90;2.10;;;22.60;55.70;;;;;;222384;1254;22786;-51
2023/04/12 07:59:37;;;;;;;5.50;2.00;;;22.50;55.70;;;;;;222509;1269;22522;-53
2023/04/12 08:04:43;;;;;;;5.10;1.60;;;22.50;55.70;;;;;;222495;1245;22985;-53
2023/04/12 08:09:48;;;;;;;9.10;2.00;;;22.50;55.60;;;;;;222491;1269;23217;-52
2023/04/12 08:14:52;;;;;;;2.90;1.70;;;22.50;55.60;;;;;;222453;1254;22640;-51
2023/04/12 08:19:56;;;;;;;4.70;2.30;;;22.40;55.90;;;;;;222493;1264;22562;-53
2023/04/12 08:25:00;;;;;;;1.70;1.60;;;22.50;55.60;;;;;;222221;1263;22713;-56
2023/04/12 08:30:06;;;;;;;1.80;1.30;;;22.40;55.80;;;;;;222084;1264;22526;-53
2023/04/12 08:35:10;;;;;;;3.50;1.70;;;22.50;55.40;;;;;;222249;1254;22506;-58
2023/04/12 08:40:16;;;;;;;2.80;1.60;;;22.40;55.60;;;;;;222418;1257;24053;-52
2023/04/12 08:45:22;;;;;;;2.90;1.70;;;22.40;56.00;;;;;;222500;1246;22498;-53
2023/04/12 08:50:27;;;;;;;2.90;1.60;;;22.40;56.00;;;;;;220872;1264;25389;-55
2023/04/12 08:55:30;;;;;;;3.10;1.50;;;22.40;56.10;;;;;;220971;1273;22550;-58
2023/04/12 09:00:36;;;;;;;2.50;1.80;;;22.60;55.10;;;;;;221218;1270;22492;-52
2023/04/12 09:05:40;;;;;;;2.00;1.70;;;22.50;54.30;;;;;;221075;1254;22620;-55
2023/04/12 09:10:45;;;;;;;2.20;1.60;;;22.40;55.00;;;;;;222459;1246;22525;-53
2023/04/12 09:15:50;;;;;;;3.00;1.60;;;22.40;54.40;;;;;;222316;1254;22527;-54
2023/04/12 09:21:08;;;;;;;2.70;1.70;;;22.60;54.50;;;;;;222495;1254;22641;-55
2023/04/12 09:26:27;;;;;;;2.60;1.50;;;22.50;54.20;;;;;;222228;1262;22822;-52
2023/04/12 09:31:31;;;;;;;3.50;1.40;;;22.40;54.60;;;;;;222589;1254;22634;-58
2023/04/12 09:36:39;;;;;;;3.10;1.50;;;22.40;54.70;;;;;;222350;1252;24380;-52
2023/04/12 09:41:44;;;;;;;1.80;1.20;;;22.50;54.40;;;;;;222270;1254;22523;-53
2023/04/12 09:46:51;;;;;;;2.40;1.50;;;22.50;54.70;;;;;;222454;1254;26086;-52
2023/04/12 09:51:56;;;;;;;2.80;1.40;;;22.50;54.40;;;;;;222190;1264;22518;-58
2023/04/12 09:57:07;;;;;;;1.30;1.10;;;22.40;54.90;;;;;;222196;1262;24300;-53
2023/04/12 10:02:22;;;;;;;1.60;1.40;;;22.50;54.40;;;;;;222378;1254;25436;-52
2023/04/12 10:07:26;;;;;;;1.30;1.20;;;22.50;54.50;;;;;;222177;1263;22560;-52
2023/04/12 10:12:31;;;;;;;1.70;1.50;;;22.60;54.60;;;;;;221983;1255;22595;-52
2023/04/12 10:17:36;;;;;;;1.80;1.50;;;22.60;54.00;;;;;;222423;1254;22640;-55
2023/04/12 10:22:41;;;;;;;2.60;1.20;;;22.70;54.50;;;;;;222249;1245;24344;-54
2023/04/12 10:27:46;;;;;;;2.40;1.50;;;22.70;54.10;;;;;;222177;1254;22693;-54
2023/04/12 10:33:08;;;;;;;1.80;1.40;;;22.70;54.10;;;;;;222450;1254;25217;-57
2023/04/12 10:38:13;;;;;;;1.40;1.30;;;22.80;54.10;;;;;;222343;1261;23035;-58
2023/04/12 10:43:27;;;;;;;1.20;1.10;;;22.80;54.20;;;;;;222240;1263;22517;-52
2023/04/12 10:48:37;;;;;;;2.70;1.50;;;22.90;54.20;;;;;;222460;1254;23917;-57
2023/04/12 10:53:41;;;;;;;1.30;1.20;;;22.90;53.70;;;;;;222242;1263;22518;-54
2023/04/12 10:58:55;;;;;;;1.40;1.30;;;22.90;53.80;;;;;;222354;1261;24058;-53
2023/04/12 11:04:24;;;;;;;2.50;1.30;;;22.90;53.80;;;;;;222273;1256;22630;-54
2023/04/12 11:09:42;;;;;;;1.90;1.60;;;22.90;53.80;;;;;;222462;1252;23877;-52
2023/04/12 11:14:51;;;;;;;1.70;1.30;;;23.00;53.40;;;;;;222182;1255;22636;-53
2023/04/12 11:20:00;;;;;;;2.20;1.40;;;23.00;53.50;;;;;;222214;1260;25217;-50
2023/04/12 11:25:05;;;;;;;2.00;1.70;;;23.00;53.50;;;;;;222221;1262;22563;-53
2023/04/12 11:30:11;;;;;;;2.00;1.50;;;23.00;53.60;;;;;;222183;1255;22530;-52
2023/04/12 11:35:16;;;;;;;2.50;1.40;;;23.10;53.80;;;;;;222270;1252;24255;-55
2023/04/12 11:40:21;;;;;;;1.70;1.30;;;23.10;53.20;;;;;;222446;1256;22522;-52
2023/04/12 11:45:28;;;;;;;2.70;1.40;;;23.10;53.70;;;;;;222099;1254;23232;-51
2023/04/12 11:50:32;;;;;;;2.40;1.40;;;23.00;53.10;;;;;;222242;1261;25264;-49
2023/04/12 11:55:36;;;;;;;1.50;1.20;;;23.10;52.60;;;;;;222294;1262;22541;-53
2023/04/12 12:00:44;;;;;;;1.30;1.20;;;23.00;53.10;;;;;;222459;1262;22504;-54
2023/04/12 12:05:50;;;;;;;1.70;1.40;;;23.10;52.70;;;;;;222483;1262;22802;-54
2023/04/12 12:10:55;;;;;;;3.00;1.30;;;23.20;52.60;;;;;;222321;1254;22508;-49
2023/04/12 12:16:11;;;;;;;2.10;1.30;;;23.10;52.70;;;;;;222213;1255;22641;-55
2023/04/12 12:21:17;;;;;;;1.70;1.40;;;23.20;52.60;;;;;;222741;1262;23876;-53
2023/04/12 12:26:24;;;;;;;1.30;1.10;;;23.20;52.70;;;;;;222166;1262;22644;-52
2023/04/12 12:31:28;;;;;;;1.40;1.10;;;23.10;52.30;;;;;;222377;1264;22541;-56
2023/04/12 12:36:36;;;;;;;1.40;0.80;;;23.10;52.80;;;;;;222387;1255;24197;-52
2023/04/12 12:41:40;;;;;;;1.10;1.00;;;23.10;53.50;;;;;;222437;1262;24362;-54
2023/04/12 12:46:44;;;;;;;1.80;1.40;;;23.10;52.80;;;;;;222352;1257;24236;-53
2023/04/12 12:51:58;;;;;;;2.70;1.40;;;23.10;52.90;;;;;;222567;1262;22540;-52
2023/04/12 12:57:04;;;;;;;1.20;1.00;;;23.10;52.80;;;;;;222356;1256;22534;-52
2023/04/12 13:02:08;;;;;;;1.70;1.10;;;23.00;53.30;;;;;;222558;1262;22520;-52
2023/04/12 13:07:12;;;;;;;1.70;1.20;;;23.00;53.30;;;;;;222193;1265;24096;-53
2023/04/12 13:12:16;;;;;;;1.00;0.90;;;23.00;53.00;;;;;;222175;1255;24200;-52
2023/04/12 13:17:21;;;;;;;1.30;0.90;;;23.00;53.00;;;;;;222065;1256;22734;-55
2023/04/12 13:22:26;;;;;;;1.30;1.00;;;23.00;53.40;;;;;;222329;1262;22522;-56
2023/04/12 13:27:32;;;;;;;1.50;1.30;;;23.00;53.00;;;;;;222242;1262;22519;-53
2023/04/12 13:32:43;;;;;;;1.80;1.20;;;23.00;53.00;;;;;;222126;1259;22633;-55
2023/04/12 13:37:48;;;;;;;1.00;1.00;;;23.00;52.80;;;;;;222088;1255;22659;-55
2023/04/12 13:42:52;;;;;;;1.60;1.20;;;23.00;52.80;;;;;;222448;1255;23880;-54
2023/04/12 13:47:56;;;;;;;0.90;0.80;;;23.00;52.80;;;;;;222218;1256;22527;-53
2023/04/12 13:53:00;;;;;;;1.10;0.90;;;23.00;52.80;;;;;;222197;1255;22518;-52
2023/04/12 13:58:04;;;;;;;2.10;1.20;;;23.10;53.00;;;;;;222192;1265;22511;-49
2023/04/12 14:03:08;;;;;;;1.60;1.50;;;23.10;52.60;;;;;;222220;1262;24393;-53
2023/04/12 14:08:13;;;;;;;2.00;1.70;;;22.90;51.00;;;;;;222209;1265;22507;-52
2023/04/12 14:13:17;;;;;;;1.60;1.30;;;22.90;52.40;;;;;;222438;1263;24244;-53
2023/04/12 14:18:21;;;;;;;1.30;1.10;;;22.90;51.00;;;;;;222258;1257;22643;-53
2023/04/12 14:23:25;;;;;;;1.40;1.10;;;23.00;51.80;;;;;;222345;1268;24334;-52
2023/04/12 14:28:30;;;;;;;3.40;2.00;;;23.00;52.10;;;;;;222367;1256;22507;-54
2023/04/12 14:33:34;;;;;;;4.80;1.40;;;23.10;53.60;;;;;;222501;1262;24209;-53
2023/04/12 14:38:38;;;;;;;6.40;2.60;;;23.00;54.10;;;;;;222444;1256;22629;-55
2023/04/12 14:43:42;;;;;;;4.00;1.60;;;23.00;54.00;;;;;;222256;1262;22569;-51
2023/04/12 14:48:47;;;;;;;4.60;1.90;;;23.10;54.90;;;;;;222344;1262;22554;-52
2023/04/12 14:53:51;;;;;;;4.20;1.30;;;23.10;55.60;;;;;;222162;1255;22513;-55
2023/04/12 14:58:56;;;;;;;6.60;3.50;;;23.00;57.10;;;;;;222461;1262;22606;-52
2023/04/12 15:04:02;;;;;;;4.60;1.50;;;23.10;56.30;;;;;;222457;1255;24184;-56
2023/04/12 15:09:08;;;;;;;6.00;1.80;;;22.90;56.10;;;;;;222377;1264;22638;-51
2023/04/12 15:14:19;;;;;;;2.60;1.60;;;23.00;55.10;;;;;;222375;1262;25383;-53
2023/04/12 15:19:23;;;;;;;3.60;1.60;;;22.90;55.60;;;;;;222510;1263;23668;-49
2023/04/12 15:24:29;;;;;;;3.00;1.50;;;23.00;56.10;;;;;;222220;1255;22536;-52
2023/04/12 15:29:34;;;;;;;5.80;1.80;;;23.00;56.60;;;;;;221875;1262;22516;-52
2023/04/12 15:34:41;;;;;;;4.90;1.60;;;22.90;56.60;;;;;;222291;1255;22510;-56
2023/04/12 15:39:49;;;;;;;3.60;1.40;;;22.90;55.80;;;;;;222230;1261;24022;-54
2023/04/12 15:45:01;;;;;;;4.50;1.60;;;23.00;55.50;;;;;;222415;1254;25313;-53
2023/04/12 15:50:15;;;;;;;2.60;1.80;;;22.90;55.60;;;;;;222118;1254;22846;-55
2023/04/12 15:55:35;;;;;;;3.40;1.70;;;22.80;54.80;;;;;;221934;1262;25218;-59
2023/04/12 16:00:44;;;;;;;8.40;1.70;;;22.80;54.60;;;;;;222239;1254;22523;-54
2023/04/12 16:05:55;;;;;;;3.70;2.00;;;22.80;54.40;;;;;;222109;1255;25180;-46
2023/04/12 16:11:12;;;;;;;6.10;1.40;;;22.80;54.60;;;;;;222306;1247;23250;-42
2023/04/12 16:16:21;;;;;;;7.60;1.70;;;22.70;54.60;;;;;;222349;1254;25391;-54
2023/04/12 16:21:29;;;;;;;3.70;1.80;;;22.70;54.50;;;;;;222244;1262;25485;-52
2023/04/12 16:26:33;;;;;;;5.70;2.20;;;22.70;54.30;;;;;;222306;1256;22509;-45
2023/04/12 16:31:38;;;;;;;5.70;1.90;;;22.70;54.50;;;;;;222288;1262;25039;-42
2023/04/12 16:36:44;;;;;;;4.80;2.00;;;22.70;54.70;;;;;;222067;1256;25466;-41
2023/04/12 16:41:49;;;;;;;3.20;1.70;;;22.70;54.60;;;;;;222115;1256;23139;-44
2023/04/12 16:46:54;;;;;;;6.90;2.10;;;22.70;54.40;;;;;;222224;1250;22535;-41
2023/04/12 16:52:00;;;;;;;4.60;1.70;;;22.70;54.40;;;;;;222345;1262;25278;-43
2023/04/12 16:57:05;;;;;;;4.70;1.70;;;22.70;54.60;;;;;;222038;1261;22691;-42
2023/04/12 17:02:11;;;;;;;5.70;2.10;;;22.70;55.00;;;;;;222198;1262;24929;-45
2023/04/12 17:07:17;;;;;;;4.90;1.80;;;22.70;54.50;;;;;;222535;1255;22655;-41
2023/04/12 17:12:22;;;;;;;26.50;14.70;;;22.70;54.00;;;;;;222348;1262;22552;-43
2023/04/12 17:17:27;;;;;;;108.40;68.40;;;22.70;53.70;;;;;;222339;1265;22564;-42
2023/04/12 17:22:32;;;;;;;70.40;45.50;;;22.80;53.00;;;;;;222509;1261;25541;-45
2023/04/12 17:27:39;;;;;;;82.70;49.70;;;22.80;52.20;;;;;;222318;1262;23958;-41
2023/04/12 17:32:48;;;;;;;75.40;47.60;;;22.80;51.80;;;;;;222392;1261;22520;-43
2023/04/12 17:37:54;;;;;;;70.40;46.10;;;22.90;52.80;;;;;;222202;1247;23451;-42
2023/04/12 17:43:00;;;;;;;64.20;42.60;;;22.90;53.10;;;;;;222199;1258;25236;-43
2023/04/12 17:48:07;;;;;;;65.70;41.10;;;22.90;53.10;;;;;;222240;1265;23742;-45
2023/04/12 17:53:13;;;;;;;65.20;40.00;;;22.80;53.70;;;;;;222142;1261;23883;-42
2023/04/12 17:58:19;;;;;;;57.50;37.80;;;22.90;53.30;;;;;;222191;1247;25482;-50
2023/04/12 18:03:26;;;;;;;50.70;35.20;;;22.80;54.10;;;;;;222239;1257;22509;-51
2023/04/12 18:08:36;;;;;;;58.80;36.80;;;22.80;53.60;;;;;;222198;1264;22508;-47
2023/04/12 18:13:41;;;;;;;54.40;34.50;;;22.80;53.70;;;;;;222236;1262;22599;-55
2023/04/12 18:18:48;;;;;;;56.30;32.60;;;22.70;53.80;;;;;;221910;1262;24362;-57
2023/04/12 18:23:53;;;;;;;48.10;29.40;;;22.70;54.00;;;;;;222319;1265;22568;-57
2023/04/12 18:28:59;;;;;;;39.60;25.90;;;22.80;53.50;;;;;;223554;1246;518942;-57
2023/04/12 18:34:04;;;;;;;45.40;25.10;;;22.90;53.50;;;;;;222259;1254;22513;-57
2023/04/12 18:39:11;;;;;;;41.10;25.40;;;22.80;53.20;;;;;;222398;1265;22626;-57
2023/04/12 18:44:18;;;;;;;39.10;23.40;;;22.70;53.60;;;;;;222192;1262;25203;-54
2023/04/12 18:49:25;;;;;;;31.60;20.00;;;22.60;53.10;;;;;;222050;1265;22623;-54
2023/04/12 18:54:31;;;;;;;28.60;20.70;;;22.60;53.20;;;;;;222052;1262;22506;-60
2023/04/12 18:59:38;;;;;;;26.40;18.90;;;22.50;53.20;;;;;;222307;1262;25413;-54
2023/04/12 19:04:48;;;;;;;31.60;19.40;;;22.50;52.90;;;;;;222345;1253;24357;-54
2023/04/12 19:09:59;;;;;;;25.50;17.30;;;22.50;53.00;;;;;;222260;1268;24160;-56
2023/04/12 19:15:08;;;;;;;24.30;17.30;;;22.50;53.10;;;;;;221697;1259;22528;-55
2023/04/12 19:34:30;;;;;;;26.30;16.40;;;22.50;54.00;;;;;;222251;1262;22514;-48
2023/04/12 19:39:41;;;;;;;27.50;15.10;;;22.40;54.10;;;;;;222105;1262;24216;-47
2023/04/12 19:44:51;;;;;;;24.60;16.20;;;22.40;54.50;;;;;;222129;1253;24272;-47
2023/04/12 19:50:00;;;;;;;24.90;15.00;;;22.50;54.70;;;;;;222098;1265;22566;-50
2023/04/12 19:55:07;;;;;;;22.00;14.20;;;22.40;54.80;;;;;;221985;1265;25492;-49
2023/04/12 20:00:24;;;;;;;23.90;14.00;;;22.20;54.50;;;;;;222081;1262;25306;-53
2023/04/12 20:05:32;;;;;;;20.20;13.90;;;22.20;54.40;;;;;;221905;1265;25360;-47
2023/04/12 20:10:39;;;;;;;20.40;13.90;;;22.20;54.30;;;;;;222126;1263;22532;-44
2023/04/12 20:15:47;;;;;;;24.10;13.90;;;22.20;54.80;;;;;;221899;1265;25363;-44
2023/04/12 20:20:58;;;;;;;22.50;13.50;;;22.10;54.30;;;;;;222074;1263;22513;-47
2023/04/12 20:26:04;;;;;;;20.30;13.60;;;22.10;54.60;;;;;;221956;1263;23934;-53
2023/04/12 20:31:11;;;;;;;19.30;13.90;;;22.10;54.20;;;;;;222132;1263;23280;-52
2023/04/12 20:36:17;;;;;;;19.40;13.20;;;22.10;54.60;;;;;;222022;1265;25255;-51
2023/04/12 20:41:23;;;;;;;16.20;11.50;;;22.10;54.30;;;;;;221079;1253;24233;-51
2023/04/12 20:46:29;;;;;;;18.10;12.10;;;22.10;54.50;;;;;;220203;1273;26670;-48
2023/04/12 20:51:35;;;;;;;16.80;11.80;;;22.10;54.10;;;;;;220168;1273;25271;-50
2023/04/12 20:56:40;;;;;;;18.30;12.30;;;22.10;54.20;;;;;;220399;1275;22533;-50
2023/04/12 21:01:45;;;;;;;15.70;11.30;;;22.00;54.20;;;;;;221008;1262;23067;-50
2023/04/12 21:06:54;;;;;;;23.00;12.00;;;22.00;54.20;;;;;;222172;1265;24194;-47
2023/04/12 21:12:01;;;;;;;18.80;11.80;;;22.10;58.10;;;;;;222172;1265;22585;-47
2023/04/12 21:17:05;;;;;;;21.50;12.40;;;22.20;58.70;;;;;;222161;1263;22517;-46
2023/04/12 21:22:10;;;;;;;19.40;11.00;;;22.30;58.30;;;;;;222031;1268;24236;-47
2023/04/12 21:27:14;;;;;;;20.60;10.80;;;22.30;57.60;;;;;;221990;1262;22883;-46
2023/04/12 21:32:18;;;;;;;20.00;11.50;;;22.30;57.80;;;;;;222331;1261;22518;-49
2023/04/12 21:37:22;;;;;;;14.90;10.90;;;22.40;57.80;;;;;;221899;1260;25309;-51
2023/04/12 21:42:28;;;;;;;14.90;10.90;;;22.30;57.40;;;;;;222007;1264;22992;-48
2023/04/12 21:47:32;;;;;;;16.80;10.90;;;22.30;57.70;;;;;;221833;1263;22632;-49
2023/04/12 21:52:37;;;;;;;15.90;10.30;;;22.20;57.30;;;;;;221976;1258;22650;-53
2023/04/12 21:57:41;;;;;;;13.10;10.00;;;22.20;57.00;;;;;;222020;1263;22523;-48
2023/04/12 22:02:46;;;;;;;15.00;10.50;;;22.30;56.90;;;;;;221819;1258;22756;-48
2023/04/12 22:07:50;;;;;;;17.00;10.60;;;22.20;57.00;;;;;;221843;1247;22508;-51
2023/04/12 22:12:54;;;;;;;13.90;9.80;;;22.10;57.10;;;;;;221765;1264;22514;-48
2023/04/12 22:17:58;;;;;;;13.80;10.00;;;22.10;57.60;;;;;;221889;1263;24341;-50
2023/04/12 22:23:03;;;;;;;14.60;10.40;;;22.10;57.30;;;;;;221793;1261;24187;-50
2023/04/12 22:28:09;;;;;;;21.30;10.90;;;21.90;57.80;;;;;;221809;1270;25481;-49
2023/04/12 22:33:14;;;;;;;16.60;10.20;;;22.00;58.20;;;;;;222099;1255;22539;-43
2023/04/12 22:38:18;;;;;;;18.30;9.80;;;22.00;58.50;;;;;;222043;1263;22546;-46
2023/04/12 22:43:23;;;;;;;15.30;10.30;;;22.00;58.10;;;;;;222055;1265;25462;-45
2023/04/12 22:48:31;;;;;;;16.70;9.80;;;21.90;58.30;;;;;;222017;1265;24270;-45
2023/04/12 22:53:35;;;;;;;11.40;8.40;;;21.90;58.30;;;;;;222118;1265;24240;-43
2023/04/12 22:58:39;;;;;;;11.90;8.60;;;21.80;58.10;;;;;;221903;1263;22640;-45
2023/04/12 23:03:43;;;;;;;17.00;9.60;;;21.80;57.90;;;;;;222006;1259;24164;-47
2023/04/12 23:08:48;;;;;;;15.20;8.70;;;21.80;58.00;;;;;;221800;1265;22720;-45
2023/04/12 23:13:53;;;;;;;13.80;9.30;;;21.80;57.80;;;;;;221835;1262;22627;-46
2023/04/12 23:18:57;;;;;;;14.70;8.60;;;21.80;58.10;;;;;;221841;1259;23916;-45
2023/04/12 23:24:03;;;;;;;14.40;9.20;;;21.90;57.90;;;;;;221887;1256;22552;-46
2023/04/12 23:29:07;;;;;;;9.90;8.60;;;22.20;57.10;;;;;;222307;1262;22514;-44
2023/04/12 23:34:12;;;;;;;13.40;8.90;;;22.40;57.40;;;;;;221983;1256;23149;-46
2023/04/12 23:39:16;;;;;;;10.70;7.30;;;22.70;55.90;;;;;;221852;1262;24242;-45
2023/04/12 23:44:20;;;;;;;10.20;8.30;;;22.90;55.40;;;;;;221906;1263;22638;-46
2023/04/12 23:49:25;;;;;;;10.50;7.70;;;23.10;55.00;;;;;;221837;1263;24207;-46
2023/04/12 23:54:29;;;;;;;11.00;7.60;;;23.20;54.60;;;;;;221912;1254;24268;-49
2023/04/12 23:59:33;;;;;;;14.20;7.90;;;23.30;54.40;;;;;;222064;1262;22602;-46
